sensor_id;sensor_type;location;lat;lon;timestamp;pressure;altitude;pressure_sealevel;temperature;humidity
76994;BME280;66749;47.406;18.822;2023-04-09T00:00:21;101076.50;;;4.61;86.34
76994;BME280;66749;47.406;18.822;2023-04-09T00:01:06;101073.09;;;4.58;86.02
76994;BME280;66749;47.406;18.822;2023-04-09T00:01:37;101067.06;;;4.59;85.98
76994;BME280;66749;47.406;18.822;2023-04-09T00:02:11;101074.00;;;4.57;86.33
76994;BME280;66749;47.406;18.822;2023-04-09T00:02:41;101078.25;;;4.59;86.45
76994;BME280;66749;47.406;18.822;2023-04-09T00:03:12;101074.03;;;4.55;86.29
76994;BME280;66749;47.406;18.822;2023-04-09T00:03:42;101075.75;;;4.55;85.95
76994;BME280;66749;47.406;18.822;2023-04-09T00:04:13;101070.59;;;4.55;86.05
76994;BME280;66749;47.406;18.822;2023-04-09T00:04:43;101071.50;;;4.52;85.99
76994;BME280;66749;47.406;18.822;2023-04-09T00:05:14;101077.50;;;4.54;86.74
76994;BME280;66749;47.406;18.822;2023-04-09T00:05:45;101075.75;;;4.55;86.25
76994;BME280;66749;47.406;18.822;2023-04-09T00:06:16;101077.47;;;4.56;86.25
76994;BME280;66749;47.406;18.822;2023-04-09T00:06:46;101068.84;;;4.55;86.64
76994;BME280;66749;47.406;18.822;2023-04-09T00:07:17;101075.72;;;4.56;86.10
76994;BME280;66749;47.406;18.822;2023-04-09T00:07:48;101064.56;;;4.54;86.16
76994;BME280;66749;47.406;18.822;2023-04-09T00:08:19;101074.91;;;4.54;86.18
76994;BME280;66749;47.406;18.822;2023-04-09T00:08:49;101074.06;;;4.54;85.97
76994;BME280;66749;47.406;18.822;2023-04-09T00:09:20;101074.06;;;4.54;86.80
76994;BME280;66749;47.406;18.822;2023-04-09T00:09:50;101076.69;;;4.51;86.20
76994;BME280;66749;47.406;18.822;2023-04-09T00:10:21;101076.69;;;4.51;86.40
76994;BME280;66749;47.406;18.822;2023-04-09T00:10:53;101073.19;;;4.53;86.95
76994;BME280;66749;47.406;18.822;2023-04-09T00:11:23;101072.38;;;4.51;85.82
76994;BME280;66749;47.406;18.822;2023-04-09T00:11:55;101072.38;;;4.51;86.59
76994;BME280;66749;47.406;18.822;2023-04-09T00:12:26;101075.84;;;4.50;86.69
76994;BME280;66749;47.406;18.822;2023-04-09T00:12:56;101075.81;;;4.52;86.95
76994;BME280;66749;47.406;18.822;2023-04-09T00:13:27;101073.25;;;4.50;86.42
76994;BME280;66749;47.406;18.822;2023-04-09T00:13:58;101075.88;;;4.49;86.54
76994;BME280;66749;47.406;18.822;2023-04-09T00:14:28;101068.13;;;4.49;86.08
76994;BME280;66749;47.406;18.822;2023-04-09T00:14:59;101076.69;;;4.51;86.06
76994;BME280;66749;47.406;18.822;2023-04-09T00:15:30;101076.66;;;4.52;86.47
76994;BME280;66749;47.406;18.822;2023-04-09T00:16:00;101078.38;;;4.52;86.80
76994;BME280;66749;47.406;18.822;2023-04-09T00:16:31;101069.03;;;4.48;86.76
76994;BME280;66749;47.406;18.822;2023-04-09T00:17:01;101075.03;;;4.48;86.95
76994;BME280;66749;47.406;18.822;2023-04-09T00:17:32;101073.25;;;4.50;86.57
76994;BME280;66749;47.406;18.822;2023-04-09T00:18:03;101074.16;;;4.49;87.11
76994;BME280;66749;47.406;18.822;2023-04-09T00:18:33;101078.47;;;4.49;86.66
76994;BME280;66749;47.406;18.822;2023-04-09T00:19:04;101074.19;;;4.48;87.37
76994;BME280;66749;47.406;18.822;2023-04-09T00:19:35;101074.16;;;4.49;86.38
76994;BME280;66749;47.406;18.822;2023-04-09T00:20:06;101074.09;;;4.51;86.74
76994;BME280;66749;47.406;18.822;2023-04-09T00:20:37;101075.84;;;4.50;87.01
76994;BME280;66749;47.406;18.822;2023-04-09T00:21:07;101070.63;;;4.52;87.18
76994;BME280;66749;47.406;18.822;2023-04-09T00:21:38;101071.53;;;4.51;86.79
76994;BME280;66749;47.406;18.822;2023-04-09T00:22:09;101064.66;;;4.50;86.86
76994;BME280;66749;47.406;18.822;2023-04-09T00:22:40;101064.59;;;4.53;86.44
76994;BME280;66749;47.406;18.822;2023-04-09T00:23:10;101067.16;;;4.53;87.07
76994;BME280;66749;47.406;18.822;2023-04-09T00:23:42;101061.16;;;4.52;86.90
76994;BME280;66749;47.406;18.822;2023-04-09T00:24:13;101064.63;;;4.51;86.47
76994;BME280;66749;47.406;18.822;2023-04-09T00:24:43;101071.47;;;4.54;87.02
76994;BME280;66749;47.406;18.822;2023-04-09T00:25:14;101065.44;;;4.55;86.87
76994;BME280;66749;47.406;18.822;2023-04-09T00:25:45;101065.38;;;4.56;86.43
76994;BME280;66749;47.406;18.822;2023-04-09T00:26:15;101070.53;;;4.58;86.68
76994;BME280;66749;47.406;18.822;2023-04-09T00:26:46;101067.94;;;4.58;86.68
76994;BME280;66749;47.406;18.822;2023-04-09T00:27:16;101066.19;;;4.58;86.21
76994;BME280;66749;47.406;18.822;2023-04-09T00:27:47;101068.81;;;4.57;86.84
76994;BME280;66749;47.406;18.822;2023-04-09T00:28:18;101064.56;;;4.54;86.91
76994;BME280;66749;47.406;18.822;2023-04-09T00:28:48;101070.59;;;4.55;86.62
76994;BME280;66749;47.406;18.822;2023-04-09T00:29:19;101068.84;;;4.55;86.73
76994;BME280;66749;47.406;18.822;2023-04-09T00:29:52;101068.03;;;4.53;86.23
76994;BME280;66749;47.406;18.822;2023-04-09T00:30:23;101074.06;;;4.54;86.42
76994;BME280;66749;47.406;18.822;2023-04-09T00:30:53;101074.06;;;4.54;86.94
76994;BME280;66749;47.406;18.822;2023-04-09T00:31:25;101068.91;;;4.54;86.02
76994;BME280;66749;47.406;18.822;2023-04-09T00:31:55;101068.91;;;4.54;86.67
76994;BME280;66749;47.406;18.822;2023-04-09T00:32:26;101076.63;;;4.55;86.72
76994;BME280;66749;47.406;18.822;2023-04-09T00:32:57;101065.44;;;4.55;86.63
76994;BME280;66749;47.406;18.822;2023-04-09T00:33:27;101069.72;;;4.56;86.26
76994;BME280;66749;47.406;18.822;2023-04-09T00:33:58;101072.28;;;4.56;86.16
76994;BME280;66749;47.406;18.822;2023-04-09T00:34:28;101066.28;;;4.55;86.17
76994;BME280;66749;47.406;18.822;2023-04-09T00:34:59;101065.34;;;4.58;86.63
76994;BME280;66749;47.406;18.822;2023-04-09T00:35:30;101069.63;;;4.59;87.07
76994;BME280;66749;47.406;18.822;2023-04-09T00:36:01;101078.19;;;4.61;86.86
76994;BME280;66749;47.406;18.822;2023-04-09T00:36:31;101065.28;;;4.61;86.51
76994;BME280;66749;47.406;18.822;2023-04-09T00:37:02;101066.16;;;4.60;87.02
76994;BME280;66749;47.406;18.822;2023-04-09T00:37:33;101073.06;;;4.59;86.70
76994;BME280;66749;47.406;18.822;2023-04-09T00:38:04;101069.59;;;4.60;86.46
76994;BME280;66749;47.406;18.822;2023-04-09T00:38:34;101068.75;;;4.60;86.54
76994;BME280;66749;47.406;18.822;2023-04-09T00:39:05;101063.56;;;4.60;87.16
76994;BME280;66749;47.406;18.822;2023-04-09T00:39:36;101058.44;;;4.58;87.15
76994;BME280;66749;47.406;18.822;2023-04-09T00:40:06;101064.41;;;4.62;86.49
76994;BME280;66749;47.406;18.822;2023-04-09T00:40:37;101067.81;;;4.64;86.42
76994;BME280;66749;47.406;18.822;2023-04-09T00:41:08;101063.50;;;4.64;86.93
76994;BME280;66749;47.406;18.822;2023-04-09T00:41:39;101069.50;;;4.65;86.92
76994;BME280;66749;47.406;18.822;2023-04-09T00:42:09;101064.38;;;4.63;87.05
76994;BME280;66749;47.406;18.822;2023-04-09T00:42:40;101068.63;;;4.66;86.96
76994;BME280;66749;47.406;18.822;2023-04-09T00:43:11;101065.19;;;4.65;86.91
76994;BME280;66749;47.406;18.822;2023-04-09T00:43:41;101066.94;;;4.65;87.12
76994;BME280;66749;47.406;18.822;2023-04-09T00:44:12;101066.94;;;4.65;86.80
76994;BME280;66749;47.406;18.822;2023-04-09T00:44:43;101059.97;;;4.67;86.94
76994;BME280;66749;47.406;18.822;2023-04-09T00:45:13;101066.03;;;4.66;86.52
76994;BME280;66749;47.406;18.822;2023-04-09T00:45:44;101061.75;;;4.65;87.04
76994;BME280;66749;47.406;18.822;2023-04-09T00:46:16;101068.63;;;4.66;86.26
76994;BME280;66749;47.406;18.822;2023-04-09T00:46:47;101062.59;;;4.65;86.85
76994;BME280;66749;47.406;18.822;2023-04-09T00:47:17;101065.16;;;4.67;86.31
76994;BME280;66749;47.406;18.822;2023-04-09T00:47:48;101061.75;;;4.65;86.91
76994;BME280;66749;47.406;18.822;2023-04-09T00:48:19;101066.00;;;4.67;87.12
76994;BME280;66749;47.406;18.822;2023-04-09T00:48:50;101066.84;;;4.68;86.14
76994;BME280;66749;47.406;18.822;2023-04-09T00:49:21;101063.47;;;4.66;86.18
76994;BME280;66749;47.406;18.822;2023-04-09T00:49:51;101061.75;;;4.65;86.91
76994;BME280;66749;47.406;18.822;2023-04-09T00:50:22;101061.69;;;4.68;86.39
76994;BME280;66749;47.406;18.822;2023-04-09T00:50:53;101058.28;;;4.66;86.14
76994;BME280;66749;47.406;18.822;2023-04-09T00:51:23;101059.97;;;4.67;86.97
76994;BME280;66749;47.406;18.822;2023-04-09T00:51:54;101056.59;;;4.65;86.84
76994;BME280;66749;47.406;18.822;2023-04-09T00:52:25;101064.34;;;4.65;87.20
76994;BME280;66749;47.406;18.822;2023-04-09T00:52:56;101055.69;;;4.66;87.20
76994;BME280;66749;47.406;18.822;2023-04-09T00:53:27;101056.59;;;4.65;86.78
76994;BME280;66749;47.406;18.822;2023-04-09T00:53:57;101062.53;;;4.68;86.49
76994;BME280;66749;47.406;18.822;2023-04-09T00:54:28;101054.84;;;4.65;86.89
76994;BME280;66749;47.406;18.822;2023-04-09T00:55:01;101059.16;;;4.65;87.04
76994;BME280;66749;47.406;18.822;2023-04-09T00:55:34;101057.44;;;4.65;86.54
76994;BME280;66749;47.406;18.822;2023-04-09T00:56:05;101054.84;;;4.65;87.01
76994;BME280;66749;47.406;18.822;2023-04-09T00:56:37;101061.69;;;4.68;86.88
76994;BME280;66749;47.406;18.822;2023-04-09T00:57:08;101055.69;;;4.66;86.98
76994;BME280;66749;47.406;18.822;2023-04-09T00:57:40;101054.81;;;4.67;87.04
76994;BME280;66749;47.406;18.822;2023-04-09T00:58:11;101059.13;;;4.66;86.67
76994;BME280;66749;47.406;18.822;2023-04-09T00:58:42;101060.84;;;4.67;87.31
76994;BME280;66749;47.406;18.822;2023-04-09T00:59:12;101056.50;;;4.68;87.02
76994;BME280;66749;47.406;18.822;2023-04-09T00:59:44;101057.44;;;4.65;87.08
76994;BME280;66749;47.406;18.822;2023-04-09T01:00:14;101056.59;;;4.65;86.55
76994;BME280;66749;47.406;18.822;2023-04-09T01:00:45;101062.59;;;4.65;86.55
76994;BME280;66749;47.406;18.822;2023-04-09T01:01:16;101058.28;;;4.66;86.77
76994;BME280;66749;47.406;18.822;2023-04-09T01:01:46;101057.44;;;4.65;87.06
76994;BME280;66749;47.406;18.822;2023-04-09T01:02:17;101062.56;;;4.67;86.94
76994;BME280;66749;47.406;18.822;2023-04-09T01:02:48;101059.13;;;4.66;86.47
76994;BME280;66749;47.406;18.822;2023-04-09T01:03:22;101053.97;;;4.66;86.59
76994;BME280;66749;47.406;18.822;2023-04-09T01:03:53;101054.00;;;4.65;86.65
76994;BME280;66749;47.406;18.822;2023-04-09T01:04:24;101060.88;;;4.66;86.97
76994;BME280;66749;47.406;18.822;2023-04-09T01:04:55;101061.84;;;4.62;86.65
76994;BME280;66749;47.406;18.822;2023-04-09T01:05:31;101062.69;;;4.61;86.88
76994;BME280;66749;47.406;18.822;2023-04-09T01:07:16;101053.16;;;4.64;86.99
76994;BME280;66749;47.406;18.822;2023-04-09T01:08:50;101060.06;;;4.64;86.87
76994;BME280;66749;47.406;18.822;2023-04-09T01:09:44;101066.16;;;4.60;86.87
76994;BME280;66749;47.406;18.822;2023-04-09T01:12:06;101061.72;;;4.66;86.53
76994;BME280;66749;47.406;18.822;2023-04-09T01:13:41;101059.22;;;4.63;87.06
76994;BME280;66749;47.406;18.822;2023-04-09T01:14:20;101059.22;;;4.63;87.03
76994;BME280;66749;47.406;18.822;2023-04-09T01:15:07;101059.25;;;4.62;86.62
76994;BME280;66749;47.406;18.822;2023-04-09T01:15:47;101063.53;;;4.63;87.18
76994;BME280;66749;47.406;18.822;2023-04-09T01:16:21;101061.78;;;4.63;86.58
76994;BME280;66749;47.406;18.822;2023-04-09T01:17:04;101060.06;;;4.64;87.01
76994;BME280;66749;47.406;18.822;2023-04-09T01:17:47;101059.22;;;4.63;86.90
76994;BME280;66749;47.406;18.822;2023-04-09T01:18:35;101062.69;;;4.61;86.63
76994;BME280;66749;47.406;18.822;2023-04-09T01:19:40;101062.69;;;4.62;86.85
76994;BME280;66749;47.406;18.822;2023-04-09T01:20:29;101061.00;;;4.60;87.37
76994;BME280;66749;47.406;18.822;2023-04-09T01:21:09;101065.28;;;4.61;86.77
76994;BME280;66749;47.406;18.822;2023-04-09T01:21:43;101057.50;;;4.62;86.78
76994;BME280;66749;47.406;18.822;2023-04-09T01:24:18;101062.66;;;4.64;86.81
76994;BME280;66749;47.406;18.822;2023-04-09T01:25:06;101059.16;;;4.65;86.64
76994;BME280;66749;47.406;18.822;2023-04-09T01:26:00;101060.06;;;4.64;87.29
76994;BME280;66749;47.406;18.822;2023-04-09T01:26:44;101061.75;;;4.65;86.92
76994;BME280;66749;47.406;18.822;2023-04-09T01:27:20;101058.25;;;4.67;86.69
76994;BME280;66749;47.406;18.822;2023-04-09T01:28:50;101060.09;;;4.62;87.15
76994;BME280;66749;47.406;18.822;2023-04-09T01:29:23;101057.50;;;4.62;86.83
76994;BME280;66749;47.406;18.822;2023-04-09T01:29:56;101052.31;;;4.64;86.70
76994;BME280;66749;47.406;18.822;2023-04-09T01:30:28;101066.03;;;4.66;86.66
76994;BME280;66749;47.406;18.822;2023-04-09T01:31:03;101053.97;;;4.66;86.83
76994;BME280;66749;47.406;18.822;2023-04-09T01:31:37;101056.56;;;4.66;86.98
76994;BME280;66749;47.406;18.822;2023-04-09T01:32:09;101055.69;;;4.66;87.26
76994;BME280;66749;47.406;18.822;2023-04-09T01:32:41;101064.28;;;4.68;86.58
76994;BME280;66749;47.406;18.822;2023-04-09T01:33:14;101058.28;;;4.66;87.17
76994;BME280;66749;47.406;18.822;2023-04-09T01:33:46;101059.94;;;4.68;87.35
76994;BME280;66749;47.406;18.822;2023-04-09T01:34:18;101060.81;;;4.69;86.57
76994;BME280;66749;47.406;18.822;2023-04-09T01:34:50;101056.50;;;4.68;87.41
76994;BME280;66749;47.406;18.822;2023-04-09T01:35:23;101059.94;;;4.70;86.52
76994;BME280;66749;47.406;18.822;2023-04-09T01:35:56;101057.31;;;4.71;87.25
76994;BME280;66749;47.406;18.822;2023-04-09T01:36:29;101061.63;;;4.71;87.25
76994;BME280;66749;47.406;18.822;2023-04-09T01:37:02;101066.81;;;4.71;87.35
76994;BME280;66749;47.406;18.822;2023-04-09T01:37:34;101070.28;;;4.70;86.95
76994;BME280;66749;47.406;18.822;2023-04-09T01:38:06;101066.00;;;4.67;87.19
76994;BME280;66749;47.406;18.822;2023-04-09T01:38:41;101063.41;;;4.69;87.07
76994;BME280;66749;47.406;18.822;2023-04-09T01:39:12;101065.97;;;4.70;86.98
76994;BME280;66749;47.406;18.822;2023-04-09T01:39:44;101067.66;;;4.71;86.90
76994;BME280;66749;47.406;18.822;2023-04-09T01:40:16;101065.09;;;4.70;86.05
76994;BME280;66749;47.406;18.822;2023-04-09T01:40:48;101071.19;;;4.67;86.83
76994;BME280;66749;47.406;18.822;2023-04-09T01:41:20;101068.59;;;4.67;86.63
76994;BME280;66749;47.406;18.822;2023-04-09T01:41:52;101065.16;;;4.67;86.64
76994;BME280;66749;47.406;18.822;2023-04-09T01:42:26;101064.28;;;4.68;86.38
76994;BME280;66749;47.406;18.822;2023-04-09T01:43:00;101061.69;;;4.68;86.33
76994;BME280;66749;47.406;18.822;2023-04-09T01:43:32;101066.00;;;4.67;86.61
76994;BME280;66749;47.406;18.822;2023-04-09T01:44:04;101062.53;;;4.68;86.83
76994;BME280;66749;47.406;18.822;2023-04-09T01:44:41;101066.81;;;4.71;86.91
76994;BME280;66749;47.406;18.822;2023-04-09T01:45:15;101062.53;;;4.70;86.50
76994;BME280;66749;47.406;18.822;2023-04-09T01:45:47;101060.78;;;4.70;86.98
76994;BME280;66749;47.406;18.822;2023-04-09T01:46:20;101064.28;;;4.68;87.16
76994;BME280;66749;47.406;18.822;2023-04-09T01:46:52;101066.84;;;4.68;86.91
76994;BME280;66749;47.406;18.822;2023-04-09T01:47:25;101061.72;;;4.66;86.25
76994;BME280;66749;47.406;18.822;2023-04-09T01:47:57;101069.44;;;4.68;87.18
76994;BME280;66749;47.406;18.822;2023-04-09T01:48:29;101064.28;;;4.68;86.86
76994;BME280;66749;47.406;18.822;2023-04-09T01:49:01;101068.59;;;4.69;86.29
76994;BME280;66749;47.406;18.822;2023-04-09T01:49:34;101061.72;;;4.66;87.12
76994;BME280;66749;47.406;18.822;2023-04-09T01:50:05;101059.22;;;4.63;86.88
76994;BME280;66749;47.406;18.822;2023-04-09T01:50:36;101064.38;;;4.63;86.81
76994;BME280;66749;47.406;18.822;2023-04-09T01:51:07;101065.16;;;4.67;87.16
76994;BME280;66749;47.406;18.822;2023-04-09T01:51:38;101056.59;;;4.65;86.38
76994;BME280;66749;47.406;18.822;2023-04-09T01:52:08;101059.97;;;4.67;86.89
76994;BME280;66749;47.406;18.822;2023-04-09T01:52:39;101065.16;;;4.67;86.71
76994;BME280;66749;47.406;18.822;2023-04-09T01:53:11;101062.69;;;4.62;86.63
76994;BME280;66749;47.406;18.822;2023-04-09T01:53:42;101063.53;;;4.63;86.35
76994;BME280;66749;47.406;18.822;2023-04-09T01:54:12;101063.53;;;4.63;86.49
76994;BME280;66749;47.406;18.822;2023-04-09T01:54:43;101059.22;;;4.63;87.08
76994;BME280;66749;47.406;18.822;2023-04-09T01:55:13;101060.06;;;4.64;86.48
76994;BME280;66749;47.406;18.822;2023-04-09T01:55:44;101064.34;;;4.65;86.37
76994;BME280;66749;47.406;18.822;2023-04-09T01:56:15;101065.22;;;4.64;86.69
76994;BME280;66749;47.406;18.822;2023-04-09T01:56:47;101061.84;;;4.62;87.30
76994;BME280;66749;47.406;18.822;2023-04-09T01:57:17;101061.00;;;4.60;86.59
76994;BME280;66749;47.406;18.822;2023-04-09T01:57:48;101062.72;;;4.59;86.81
76994;BME280;66749;47.406;18.822;2023-04-09T01:58:19;101061.00;;;4.60;87.22
76994;BME280;66749;47.406;18.822;2023-04-09T01:58:49;101068.81;;;4.57;86.67
76994;BME280;66749;47.406;18.822;2023-04-09T01:59:21;101063.63;;;4.58;86.28
76994;BME280;66749;47.406;18.822;2023-04-09T01:59:53;101062.72;;;4.59;86.95
76994;BME280;66749;47.406;18.822;2023-04-09T02:00:31;101064.47;;;4.59;86.69
76994;BME280;66749;47.406;18.822;2023-04-09T02:01:44;101060.19;;;4.58;87.04
76994;BME280;66749;47.406;18.822;2023-04-09T02:02:27;101062.84;;;4.55;86.85
76994;BME280;66749;47.406;18.822;2023-04-09T02:03:50;101060.25;;;4.55;87.33
76994;BME280;66749;47.406;18.822;2023-04-09T02:04:32;101060.25;;;4.53;87.46
76994;BME280;66749;47.406;18.822;2023-04-09T02:05:06;101064.53;;;4.56;86.87
76994;BME280;66749;47.406;18.822;2023-04-09T02:05:44;101058.47;;;4.57;87.11
76994;BME280;66749;47.406;18.822;2023-04-09T02:07:51;101070.69;;;4.50;87.14
76994;BME280;66749;47.406;18.822;2023-04-09T02:08:24;101064.66;;;4.50;87.33
76994;BME280;66749;47.406;18.822;2023-04-09T02:08:57;101066.31;;;4.52;86.98
76994;BME280;66749;47.406;18.822;2023-04-09T02:09:30;101063.78;;;4.51;86.51
76994;BME280;66749;47.406;18.822;2023-04-09T02:10:02;101053.44;;;4.51;87.15
76994;BME280;66749;47.406;18.822;2023-04-09T02:10:37;101062.00;;;4.53;87.13
76994;BME280;66749;47.406;18.822;2023-04-09T02:11:09;101062.00;;;4.53;86.36
76994;BME280;66749;47.406;18.822;2023-04-09T02:11:41;101063.72;;;4.54;86.52
76994;BME280;66749;47.406;18.822;2023-04-09T02:12:16;101056.84;;;4.53;86.69
76994;BME280;66749;47.406;18.822;2023-04-09T02:12:50;101055.97;;;4.54;86.75
76994;BME280;66749;47.406;18.822;2023-04-09T02:13:22;101051.66;;;4.53;86.61
76994;BME280;66749;47.406;18.822;2023-04-09T02:13:54;101053.44;;;4.51;86.48
76994;BME280;66749;47.406;18.822;2023-04-09T02:14:27;101058.59;;;4.51;86.66
76994;BME280;66749;47.406;18.822;2023-04-09T02:14:59;101062.00;;;4.53;86.35
76994;BME280;66749;47.406;18.822;2023-04-09T02:15:31;101058.59;;;4.51;86.51
76994;BME280;66749;47.406;18.822;2023-04-09T02:16:04;101062.91;;;4.50;87.16
76994;BME280;66749;47.406;18.822;2023-04-09T02:16:37;101060.38;;;4.49;86.76
76994;BME280;66749;47.406;18.822;2023-04-09T02:17:08;101056.03;;;4.51;86.63
76994;BME280;66749;47.406;18.822;2023-04-09T02:17:39;101059.44;;;4.51;87.30
76994;BME280;66749;47.406;18.822;2023-04-09T02:18:27;101056.84;;;4.53;87.25
76994;BME280;66749;47.406;18.822;2023-04-09T02:18:57;101049.16;;;4.50;86.66
76994;BME280;66749;47.406;18.822;2023-04-09T02:19:44;101053.41;;;4.52;86.84
76994;BME280;66749;47.406;18.822;2023-04-09T02:20:17;101062.88;;;4.52;86.82
76994;BME280;66749;47.406;18.822;2023-04-09T02:20:48;101058.56;;;4.52;86.81
76994;BME280;66749;47.406;18.822;2023-04-09T02:21:18;101058.56;;;4.52;86.56
76994;BME280;66749;47.406;18.822;2023-04-09T02:21:49;101056.91;;;4.50;86.97
76994;BME280;66749;47.406;18.822;2023-04-09T02:22:20;101062.06;;;4.50;86.94
76994;BME280;66749;47.406;18.822;2023-04-09T02:22:50;101056.91;;;4.50;87.29
76994;BME280;66749;47.406;18.822;2023-04-09T02:23:21;101059.44;;;4.51;86.26
76994;BME280;66749;47.406;18.822;2023-04-09T02:23:53;101057.69;;;4.53;86.46
76994;BME280;66749;47.406;18.822;2023-04-09T02:24:23;101053.44;;;4.51;86.70
76994;BME280;66749;47.406;18.822;2023-04-09T02:24:54;101060.31;;;4.52;86.24
76994;BME280;66749;47.406;18.822;2023-04-09T02:25:25;101062.00;;;4.53;86.51
76994;BME280;66749;47.406;18.822;2023-04-09T02:25:56;101056.84;;;4.53;86.98
76994;BME280;66749;47.406;18.822;2023-04-09T02:26:26;101056.84;;;4.53;86.81
76994;BME280;66749;47.406;18.822;2023-04-09T02:26:57;101057.69;;;4.53;87.16
76994;BME280;66749;47.406;18.822;2023-04-09T02:27:27;101055.97;;;4.52;86.69
76994;BME280;66749;47.406;18.822;2023-04-09T02:27:58;101063.72;;;4.54;87.11
76994;BME280;66749;47.406;18.822;2023-04-09T02:28:29;101062.00;;;4.53;87.25
76994;BME280;66749;47.406;18.822;2023-04-09T02:28:59;101052.50;;;4.53;86.88
76994;BME280;66749;47.406;18.822;2023-04-09T02:29:30;101059.41;;;4.53;86.41
76994;BME280;66749;47.406;18.822;2023-04-09T02:30:01;101063.72;;;4.54;86.63
76994;BME280;66749;47.406;18.822;2023-04-09T02:30:31;101060.25;;;4.55;86.65
76994;BME280;66749;47.406;18.822;2023-04-09T02:31:02;101053.38;;;4.54;86.56
76994;BME280;66749;47.406;18.822;2023-04-09T02:31:33;101057.69;;;4.53;86.31
76994;BME280;66749;47.406;18.822;2023-04-09T02:32:03;101055.09;;;4.53;86.78
76994;BME280;66749;47.406;18.822;2023-04-09T02:32:34;101059.41;;;4.53;86.50
76994;BME280;66749;47.406;18.822;2023-04-09T02:33:05;101053.41;;;4.52;86.61
76994;BME280;66749;47.406;18.822;2023-04-09T02:33:36;101055.13;;;4.52;87.35
76994;BME280;66749;47.406;18.822;2023-04-09T02:34:07;101051.66;;;4.53;87.12
76994;BME280;66749;47.406;18.822;2023-04-09T02:34:37;101058.56;;;4.52;86.41
76994;BME280;66749;47.406;18.822;2023-04-09T02:35:08;101055.22;;;4.49;87.20
76994;BME280;66749;47.406;18.822;2023-04-09T02:35:38;101049.97;;;4.52;86.59
76994;BME280;66749;47.406;18.822;2023-04-09T02:36:12;101049.13;;;4.51;87.13
76994;BME280;66749;47.406;18.822;2023-04-09T02:36:42;101049.97;;;4.52;87.28
76994;BME280;66749;47.406;18.822;2023-04-09T02:37:13;101046.53;;;4.51;86.47
76994;BME280;66749;47.406;18.822;2023-04-09T02:37:44;101052.59;;;4.50;86.76
76994;BME280;66749;47.406;18.822;2023-04-09T02:38:14;101052.59;;;4.50;86.59
76994;BME280;66749;47.406;18.822;2023-04-09T02:38:45;101050.81;;;4.52;86.88
76994;BME280;66749;47.406;18.822;2023-04-09T02:39:15;101047.38;;;4.52;86.55
76994;BME280;66749;47.406;18.822;2023-04-09T02:39:46;101044.78;;;4.52;86.67
76994;BME280;66749;47.406;18.822;2023-04-09T02:40:16;101053.44;;;4.51;86.62
76994;BME280;66749;47.406;18.822;2023-04-09T02:40:47;101055.13;;;4.52;86.78
76994;BME280;66749;47.406;18.822;2023-04-09T02:41:18;101053.38;;;4.54;86.80
76994;BME280;66749;47.406;18.822;2023-04-09T02:41:48;101054.25;;;4.54;86.79
76994;BME280;66749;47.406;18.822;2023-04-09T02:42:19;101051.66;;;4.54;86.62
76994;BME280;66749;47.406;18.822;2023-04-09T02:42:51;101048.22;;;4.54;86.99
76994;BME280;66749;47.406;18.822;2023-04-09T02:43:22;101053.38;;;4.54;86.81
76994;BME280;66749;47.406;18.822;2023-04-09T02:43:53;101046.50;;;4.53;86.95
76994;BME280;66749;47.406;18.822;2023-04-09T02:44:24;101049.16;;;4.50;87.01
76994;BME280;66749;47.406;18.822;2023-04-09T02:44:54;101050.88;;;4.49;86.66
76994;BME280;66749;47.406;18.822;2023-04-09T02:45:25;101046.69;;;4.43;86.62
76994;BME280;66749;47.406;18.822;2023-04-09T02:45:55;101050.16;;;4.42;86.39
76994;BME280;66749;47.406;18.822;2023-04-09T02:46:26;101051.81;;;4.45;86.63
76994;BME280;66749;47.406;18.822;2023-04-09T02:46:57;101051.81;;;4.47;86.36
76994;BME280;66749;47.406;18.822;2023-04-09T02:47:27;101053.56;;;4.44;86.27
76994;BME280;66749;47.406;18.822;2023-04-09T02:47:59;101056.09;;;4.48;85.96
76994;BME280;66749;47.406;18.822;2023-04-09T02:48:30;101048.34;;;4.48;86.45
76994;BME280;66749;47.406;18.822;2023-04-09T02:49:00;101050.03;;;4.49;85.66
76994;BME280;66749;47.406;18.822;2023-04-09T02:49:31;101048.34;;;4.48;86.42
76994;BME280;66749;47.406;18.822;2023-04-09T02:50:02;101043.97;;;4.50;86.41
76994;BME280;66749;47.406;18.822;2023-04-09T02:50:33;101050.00;;;4.50;86.51
76994;BME280;66749;47.406;18.822;2023-04-09T02:51:04;101049.97;;;4.52;85.67
76994;BME280;66749;47.406;18.822;2023-04-09T02:51:35;101049.97;;;4.52;86.04
76994;BME280;66749;47.406;18.822;2023-04-09T02:52:06;101047.38;;;4.52;85.87
76994;BME280;66749;47.406;18.822;2023-04-09T02:52:38;101049.94;;;4.53;86.35
76994;BME280;66749;47.406;18.822;2023-04-09T02:53:09;101048.22;;;4.54;86.16
76994;BME280;66749;47.406;18.822;2023-04-09T02:53:40;101045.63;;;4.54;85.97
76994;BME280;66749;47.406;18.822;2023-04-09T02:54:10;101046.50;;;4.53;86.36
76994;BME280;66749;47.406;18.822;2023-04-09T02:54:41;101047.34;;;4.53;85.73
76994;BME280;66749;47.406;18.822;2023-04-09T02:55:12;101052.50;;;4.53;86.02
76994;BME280;66749;47.406;18.822;2023-04-09T02:55:43;101040.56;;;4.49;85.51
76994;BME280;66749;47.406;18.822;2023-04-09T02:56:13;101043.94;;;4.51;85.67
76994;BME280;66749;47.406;18.822;2023-04-09T02:56:44;101047.38;;;4.52;85.47
76994;BME280;66749;47.406;18.822;2023-04-09T02:57:15;101054.28;;;4.51;86.04
76994;BME280;66749;47.406;18.822;2023-04-09T02:57:45;101048.25;;;4.51;85.81
76994;BME280;66749;47.406;18.822;2023-04-09T02:58:16;101049.16;;;4.50;86.13
76994;BME280;66749;47.406;18.822;2023-04-09T02:58:47;101049.16;;;4.50;85.39
76994;BME280;66749;47.406;18.822;2023-04-09T02:59:20;101048.31;;;4.49;85.50
76994;BME280;66749;47.406;18.822;2023-04-09T02:59:51;101044.03;;;4.48;86.16